sensor_id;sensor_type;location;lat;lon;timestamp;temperature;humidity
5352;DHT22;2698;51.454;6.736;2022-12-15T00:00:58;-4.10;99.90
5352;DHT22;2698;51.454;6.736;2022-12-15T00:03:43;-4.10;99.90
5352;DHT22;2698;51.454;6.736;2022-12-15T00:06:27;-4.20;99.90
5352;DHT22;2698;51.454;6.736;2022-12-15T00:09:13;-4.20;99.90
5352;DHT22;2698;51.454;6.736;2022-12-15T00:11:58;-4.20;99.90
5352;DHT22;2698;51.454;6.736;2022-12-15T00:14:43;-4.20;99.90
5352;DHT22;2698;51.454;6.736;2022-12-15T00:17:27;-4.20;99.90
5352;DHT22;2698;51.454;6.736;2022-12-15T00:20:11;-4.20;99.90
5352;DHT22;2698;51.454;6.736;2022-12-15T00:22:55;-4.20;99.90
5352;DHT22;2698;51.454;6.736;2022-12-15T00:25:42;-4.20;99.90
5352;DHT22;2698;51.454;6.736;2022-12-15T00:28:26;-4.30;99.90
5352;DHT22;2698;51.454;6.736;2022-12-15T00:31:10;-4.30;99.90
5352;DHT22;2698;51.454;6.736;2022-12-15T00:33:54;-4.30;99.90
5352;DHT22;2698;51.454;6.736;2022-12-15T00:36:38;-4.20;99.90
5352;DHT22;2698;51.454;6.736;2022-12-15T00:39:22;-4.30;99.90
5352;DHT22;2698;51.454;6.736;2022-12-15T00:41:50;-4.30;99.90
5352;DHT22;2698;51.454;6.736;2022-12-15T00:44:17;-4.30;99.90
5352;DHT22;2698;51.454;6.736;2022-12-15T00:46:45;-4.30;99.90
5352;DHT22;2698;51.454;6.736;2022-12-15T00:49:20;-4.30;99.90
5352;DHT22;2698;51.454;6.736;2022-12-15T00:52:05;-4.30;99.90
5352;DHT22;2698;51.454;6.736;2022-12-15T00:54:49;-4.30;99.90
5352;DHT22;2698;51.454;6.736;2022-12-15T00:57:35;-4.30;99.90
5352;DHT22;2698;51.454;6.736;2022-12-15T01:00:19;-4.30;99.90
5352;DHT22;2698;51.454;6.736;2022-12-15T01:03:09;-4.30;99.90
5352;DHT22;2698;51.454;6.736;2022-12-15T01:05:54;-4.30;99.90
5352;DHT22;2698;51.454;6.736;2022-12-15T01:08:38;-4.30;99.90
5352;DHT22;2698;51.454;6.736;2022-12-15T01:11:22;-4.30;99.90
5352;DHT22;2698;51.454;6.736;2022-12-15T01:14:08;-4.30;99.90
5352;DHT22;2698;51.454;6.736;2022-12-15T01:16:52;-4.30;99.90
5352;DHT22;2698;51.454;6.736;2022-12-15T01:19:36;-4.30;99.90
5352;DHT22;2698;51.454;6.736;2022-12-15T01:22:20;-4.20;99.90
5352;DHT22;2698;51.454;6.736;2022-12-15T01:24:47;-4.30;99.90
5352;DHT22;2698;51.454;6.736;2022-12-15T01:27:13;-4.30;99.90
5352;DHT22;2698;51.454;6.736;2022-12-15T01:29:42;-4.30;99.90
5352;DHT22;2698;51.454;6.736;2022-12-15T01:32:09;-4.30;99.90
5352;DHT22;2698;51.454;6.736;2022-12-15T01:34:35;-4.30;99.90
5352;DHT22;2698;51.454;6.736;2022-12-15T01:37:02;-4.20;99.90
5352;DHT22;2698;51.454;6.736;2022-12-15T01:39:29;-4.20;99.90
5352;DHT22;2698;51.454;6.736;2022-12-15T01:42:16;-4.20;99.90
5352;DHT22;2698;51.454;6.736;2022-12-15T01:44:48;-4.20;99.90
5352;DHT22;2698;51.454;6.736;2022-12-15T01:47:16;-4.20;99.90
5352;DHT22;2698;51.454;6.736;2022-12-15T01:49:43;-4.20;99.90
5352;DHT22;2698;51.454;6.736;2022-12-15T01:52:14;-4.20;99.90
5352;DHT22;2698;51.454;6.736;2022-12-15T01:54:43;-4.20;99.90
5352;DHT22;2698;51.454;6.736;2022-12-15T01:57:15;-4.20;99.90
5352;DHT22;2698;51.454;6.736;2022-12-15T01:59:48;-4.20;99.90
5352;DHT22;2698;51.454;6.736;2022-12-15T02:02:19;-4.30;99.90
5352;DHT22;2698;51.454;6.736;2022-12-15T02:04:48;-4.30;99.90
5352;DHT22;2698;51.454;6.736;2022-12-15T02:07:16;-4.30;99.90
5352;DHT22;2698;51.454;6.736;2022-12-15T02:09:45;-4.30;99.90
5352;DHT22;2698;51.454;6.736;2022-12-15T02:12:19;-4.30;99.90
5352;DHT22;2698;51.454;6.736;2022-12-15T02:15:00;-4.30;99.90
5352;DHT22;2698;51.454;6.736;2022-12-15T02:17:34;-4.30;99.90
5352;DHT22;2698;51.454;6.736;2022-12-15T02:20:25;-4.20;99.90
5352;DHT22;2698;51.454;6.736;2022-12-15T02:26:44;-4.20;99.90
5352;DHT22;2698;51.454;6.736;2022-12-15T02:29:37;-4.30;99.90
5352;DHT22;2698;51.454;6.736;2022-12-15T02:32:09;-4.30;99.90
5352;DHT22;2698;51.454;6.736;2022-12-15T02:34:41;-4.40;99.90
5352;DHT22;2698;51.454;6.736;2022-12-15T02:37:12;-4.40;99.90
5352;DHT22;2698;51.454;6.736;2022-12-15T02:39:40;-4.40;99.90
5352;DHT22;2698;51.454;6.736;2022-12-15T02:42:08;-4.40;99.90
5352;DHT22;2698;51.454;6.736;2022-12-15T02:44:38;-4.50;99.90
5352;DHT22;2698;51.454;6.736;2022-12-15T02:47:18;-4.40;99.90
5352;DHT22;2698;51.454;6.736;2022-12-15T02:49:58;-4.50;99.90
5352;DHT22;2698;51.454;6.736;2022-12-15T02:52:41;-4.60;99.90
5352;DHT22;2698;51.454;6.736;2022-12-15T02:55:14;-4.60;99.90
5352;DHT22;2698;51.454;6.736;2022-12-15T02:57:49;-4.60;99.90
5352;DHT22;2698;51.454;6.736;2022-12-15T03:00:19;-4.70;99.90
5352;DHT22;2698;51.454;6.736;2022-12-15T03:02:49;-4.70;99.90
5352;DHT22;2698;51.454;6.736;2022-12-15T03:05:18;-4.60;99.90
5352;DHT22;2698;51.454;6.736;2022-12-15T03:07:48;-4.60;99.90
5352;DHT22;2698;51.454;6.736;2022-12-15T03:10:16;-4.60;99.90
5352;DHT22;2698;51.454;6.736;2022-12-15T03:12:43;-4.60;99.90
5352;DHT22;2698;51.454;6.736;2022-12-15T03:15:10;-4.60;99.90
5352;DHT22;2698;51.454;6.736;2022-12-15T03:17:37;-4.70;99.90
5352;DHT22;2698;51.454;6.736;2022-12-15T03:20:06;-4.60;99.90
5352;DHT22;2698;51.454;6.736;2022-12-15T03:22:34;-4.70;99.90
5352;DHT22;2698;51.454;6.736;2022-12-15T03:25:01;-4.70;99.90
5352;DHT22;2698;51.454;6.736;2022-12-15T03:27:28;-4.70;99.90
5352;DHT22;2698;51.454;6.736;2022-12-15T03:29:55;-4.60;99.90
5352;DHT22;2698;51.454;6.736;2022-12-15T03:32:23;-4.60;99.90
5352;DHT22;2698;51.454;6.736;2022-12-15T03:34:50;-4.60;99.90
5352;DHT22;2698;51.454;6.736;2022-12-15T03:37:18;-4.60;99.90
5352;DHT22;2698;51.454;6.736;2022-12-15T03:39:45;-4.60;99.90
5352;DHT22;2698;51.454;6.736;2022-12-15T03:42:12;-4.60;99.90
5352;DHT22;2698;51.454;6.736;2022-12-15T03:44:59;-4.70;99.90
5352;DHT22;2698;51.454;6.736;2022-12-15T03:47:26;-4.60;99.90
5352;DHT22;2698;51.454;6.736;2022-12-15T03:49:53;-4.60;99.90
5352;DHT22;2698;51.454;6.736;2022-12-15T03:52:22;-4.60;99.90
5352;DHT22;2698;51.454;6.736;2022-12-15T03:54:49;-4.60;99.90
5352;DHT22;2698;51.454;6.736;2022-12-15T03:57:15;-4.60;99.90
5352;DHT22;2698;51.454;6.736;2022-12-15T03:59:42;-4.50;99.90
5352;DHT22;2698;51.454;6.736;2022-12-15T04:02:10;-4.60;99.90
5352;DHT22;2698;51.454;6.736;2022-12-15T04:04:37;-4.60;99.90
5352;DHT22;2698;51.454;6.736;2022-12-15T04:07:04;-4.60;99.90
5352;DHT22;2698;51.454;6.736;2022-12-15T04:09:32;-4.60;99.90
5352;DHT22;2698;51.454;6.736;2022-12-15T04:11:59;-4.60;99.90
5352;DHT22;2698;51.454;6.736;2022-12-15T04:14:27;-4.70;99.90
5352;DHT22;2698;51.454;6.736;2022-12-15T04:16:55;-4.70;99.90
5352;DHT22;2698;51.454;6.736;2022-12-15T04:19:22;-4.70;99.90
5352;DHT22;2698;51.454;6.736;2022-12-15T04:22:06;-4.70;99.90
5352;DHT22;2698;51.454;6.736;2022-12-15T04:24:34;-4.80;99.90
5352;DHT22;2698;51.454;6.736;2022-12-15T04:27:18;-4.80;99.90
5352;DHT22;2698;51.454;6.736;2022-12-15T04:30:03;-4.80;99.90
5352;DHT22;2698;51.454;6.736;2022-12-15T04:32:48;-4.80;99.90
5352;DHT22;2698;51.454;6.736;2022-12-15T04:35:33;-4.80;99.90
5352;DHT22;2698;51.454;6.736;2022-12-15T04:38:18;-4.80;99.90
5352;DHT22;2698;51.454;6.736;2022-12-15T04:41:04;-4.70;99.90
5352;DHT22;2698;51.454;6.736;2022-12-15T04:43:49;-4.80;99.90
5352;DHT22;2698;51.454;6.736;2022-12-15T04:46:33;-4.80;99.90
5352;DHT22;2698;51.454;6.736;2022-12-15T04:49:17;-4.90;99.90
5352;DHT22;2698;51.454;6.736;2022-12-15T04:52:01;-4.80;99.90
5352;DHT22;2698;51.454;6.736;2022-12-15T04:54:45;-4.80;99.90
5352;DHT22;2698;51.454;6.736;2022-12-15T04:57:31;-4.90;99.90
5352;DHT22;2698;51.454;6.736;2022-12-15T05:00:15;-4.80;99.90
5352;DHT22;2698;51.454;6.736;2022-12-15T05:03:03;-4.90;99.90
5352;DHT22;2698;51.454;6.736;2022-12-15T05:05:47;-4.80;99.90
5352;DHT22;2698;51.454;6.736;2022-12-15T05:08:31;-4.80;99.90
5352;DHT22;2698;51.454;6.736;2022-12-15T05:11:16;-4.80;99.90
5352;DHT22;2698;51.454;6.736;2022-12-15T05:14:03;-4.90;99.90
5352;DHT22;2698;51.454;6.736;2022-12-15T05:16:47;-4.90;99.90
5352;DHT22;2698;51.454;6.736;2022-12-15T05:19:31;-4.80;99.90
5352;DHT22;2698;51.454;6.736;2022-12-15T05:22:15;-4.80;99.90
5352;DHT22;2698;51.454;6.736;2022-12-15T05:25:00;-4.90;99.90
5352;DHT22;2698;51.454;6.736;2022-12-15T05:27:44;-4.90;99.90
5352;DHT22;2698;51.454;6.736;2022-12-15T05:30:29;-4.80;99.90
5352;DHT22;2698;51.454;6.736;2022-12-15T05:33:13;-4.80;99.90
5352;DHT22;2698;51.454;6.736;2022-12-15T05:35:41;-4.80;99.90
5352;DHT22;2698;51.454;6.736;2022-12-15T05:38:08;-4.80;99.90
5352;DHT22;2698;51.454;6.736;2022-12-15T05:40:35;-4.80;99.90
5352;DHT22;2698;51.454;6.736;2022-12-15T05:43:02;-4.80;99.90
5352;DHT22;2698;51.454;6.736;2022-12-15T05:45:31;-4.80;99.90
5352;DHT22;2698;51.454;6.736;2022-12-15T05:47:58;-4.90;99.90
5352;DHT22;2698;51.454;6.736;2022-12-15T05:50:25;-4.80;99.90
5352;DHT22;2698;51.454;6.736;2022-12-15T05:52:52;-4.90;99.90
5352;DHT22;2698;51.454;6.736;2022-12-15T05:55:20;-4.90;99.90
5352;DHT22;2698;51.454;6.736;2022-12-15T05:57:50;-4.90;99.90
5352;DHT22;2698;51.454;6.736;2022-12-15T06:00:18;-4.90;99.90
5352;DHT22;2698;51.454;6.736;2022-12-15T06:02:46;-4.80;99.90
5352;DHT22;2698;51.454;6.736;2022-12-15T06:05:16;-4.90;99.90
5352;DHT22;2698;51.454;6.736;2022-12-15T06:07:43;-4.90;99.90
5352;DHT22;2698;51.454;6.736;2022-12-15T06:10:10;-4.90;99.90
5352;DHT22;2698;51.454;6.736;2022-12-15T06:12:37;-4.90;99.90
5352;DHT22;2698;51.454;6.736;2022-12-15T06:15:04;-4.90;99.90
5352;DHT22;2698;51.454;6.736;2022-12-15T06:17:31;-4.90;99.90
5352;DHT22;2698;51.454;6.736;2022-12-15T06:19:59;-4.90;99.90
5352;DHT22;2698;51.454;6.736;2022-12-15T06:22:27;-4.90;99.90
5352;DHT22;2698;51.454;6.736;2022-12-15T06:24:54;-4.90;99.90
5352;DHT22;2698;51.454;6.736;2022-12-15T06:27:21;-4.90;99.90
5352;DHT22;2698;51.454;6.736;2022-12-15T06:29:48;-4.90;99.90
5352;DHT22;2698;51.454;6.736;2022-12-15T06:32:14;-4.90;99.90
5352;DHT22;2698;51.454;6.736;2022-12-15T06:34:41;-4.90;99.90
5352;DHT22;2698;51.454;6.736;2022-12-15T06:37:09;-4.90;99.90
5352;DHT22;2698;51.454;6.736;2022-12-15T06:39:37;-5.00;99.90
5352;DHT22;2698;51.454;6.736;2022-12-15T06:42:03;-4.90;99.90
5352;DHT22;2698;51.454;6.736;2022-12-15T06:44:30;-4.90;99.90
5352;DHT22;2698;51.454;6.736;2022-12-15T06:46:57;-4.80;99.90
5352;DHT22;2698;51.454;6.736;2022-12-15T06:49:24;-4.90;99.90
5352;DHT22;2698;51.454;6.736;2022-12-15T06:51:50;-4.90;99.90
5352;DHT22;2698;51.454;6.736;2022-12-15T06:54:19;-4.80;99.90
5352;DHT22;2698;51.454;6.736;2022-12-15T06:56:46;-4.90;99.90
5352;DHT22;2698;51.454;6.736;2022-12-15T06:59:13;-4.90;99.90
5352;DHT22;2698;51.454;6.736;2022-12-15T07:01:39;-4.90;99.90
5352;DHT22;2698;51.454;6.736;2022-12-15T07:04:07;-4.80;99.90
5352;DHT22;2698;51.454;6.736;2022-12-15T07:06:36;-4.80;99.90
5352;DHT22;2698;51.454;6.736;2022-12-15T07:09:04;-4.80;99.90
5352;DHT22;2698;51.454;6.736;2022-12-15T07:11:34;-4.80;99.90
5352;DHT22;2698;51.454;6.736;2022-12-15T07:14:01;-4.80;99.90
5352;DHT22;2698;51.454;6.736;2022-12-15T07:16:27;-4.60;99.90
5352;DHT22;2698;51.454;6.736;2022-12-15T07:18:54;-4.80;99.90
5352;DHT22;2698;51.454;6.736;2022-12-15T07:21:21;-4.80;99.90
5352;DHT22;2698;51.454;6.736;2022-12-15T07:23:48;-4.70;99.90
5352;DHT22;2698;51.454;6.736;2022-12-15T07:26:14;-4.70;99.90
5352;DHT22;2698;51.454;6.736;2022-12-15T07:28:43;-4.80;99.90
5352;DHT22;2698;51.454;6.736;2022-12-15T07:31:09;-4.70;99.90
5352;DHT22;2698;51.454;6.736;2022-12-15T07:33:37;-4.80;99.90
5352;DHT22;2698;51.454;6.736;2022-12-15T07:36:05;-4.80;99.90
5352;DHT22;2698;51.454;6.736;2022-12-15T07:38:33;-4.70;99.90
5352;DHT22;2698;51.454;6.736;2022-12-15T07:41:01;-4.70;99.90
5352;DHT22;2698;51.454;6.736;2022-12-15T07:43:28;-4.60;99.90
5352;DHT22;2698;51.454;6.736;2022-12-15T07:45:57;-4.70;99.90
5352;DHT22;2698;51.454;6.736;2022-12-15T07:48:24;-4.60;99.90
5352;DHT22;2698;51.454;6.736;2022-12-15T07:50:51;-4.70;99.90
5352;DHT22;2698;51.454;6.736;2022-12-15T07:53:23;-4.60;99.90
5352;DHT22;2698;51.454;6.736;2022-12-15T07:55:54;-4.50;99.90
5352;DHT22;2698;51.454;6.736;2022-12-15T07:58:21;-4.50;99.90
5352;DHT22;2698;51.454;6.736;2022-12-15T08:00:48;-4.50;99.90
5352;DHT22;2698;51.454;6.736;2022-12-15T08:03:16;-4.50;99.90
5352;DHT22;2698;51.454;6.736;2022-12-15T08:05:43;-4.50;99.90
5352;DHT22;2698;51.454;6.736;2022-12-15T08:08:10;-4.40;99.90
5352;DHT22;2698;51.454;6.736;2022-12-15T08:10:38;-4.40;99.90
5352;DHT22;2698;51.454;6.736;2022-12-15T08:13:05;-4.30;99.90
5352;DHT22;2698;51.454;6.736;2022-12-15T08:15:34;-4.30;99.90
5352;DHT22;2698;51.454;6.736;2022-12-15T08:18:02;-4.30;99.90
5352;DHT22;2698;51.454;6.736;2022-12-15T08:20:30;-4.20;99.90
5352;DHT22;2698;51.454;6.736;2022-12-15T08:22:57;-4.20;99.90
5352;DHT22;2698;51.454;6.736;2022-12-15T08:25:24;-4.20;99.90
5352;DHT22;2698;51.454;6.736;2022-12-15T08:27:53;-4.20;99.90
5352;DHT22;2698;51.454;6.736;2022-12-15T08:30:20;-4.10;99.90
5352;DHT22;2698;51.454;6.736;2022-12-15T08:32:47;-3.90;99.90
5352;DHT22;2698;51.454;6.736;2022-12-15T08:35:14;-4.10;99.90
5352;DHT22;2698;51.454;6.736;2022-12-15T08:37:42;-4.10;99.90
5352;DHT22;2698;51.454;6.736;2022-12-15T08:40:10;-4.00;99.90
5352;DHT22;2698;51.454;6.736;2022-12-15T08:42:38;-4.00;99.90
5352;DHT22;2698;51.454;6.736;2022-12-15T08:45:05;-4.00;99.90
5352;DHT22;2698;51.454;6.736;2022-12-15T08:47:33;-3.90;99.90
5352;DHT22;2698;51.454;6.736;2022-12-15T08:49:59;-3.90;99.90
5352;DHT22;2698;51.454;6.736;2022-12-15T08:52:26;-3.90;99.90
5352;DHT22;2698;51.454;6.736;2022-12-15T08:54:55;-3.80;99.90
5352;DHT22;2698;51.454;6.736;2022-12-15T08:57:21;-3.90;99.90
5352;DHT22;2698;51.454;6.736;2022-12-15T08:59:48;-3.80;99.90
5352;DHT22;2698;51.454;6.736;2022-12-15T09:02:15;-3.80;99.90
5352;DHT22;2698;51.454;6.736;2022-12-15T09:04:42;-3.80;99.90
5352;DHT22;2698;51.454;6.736;2022-12-15T09:07:10;-3.80;99.90
5352;DHT22;2698;51.454;6.736;2022-12-15T09:09:37;-3.70;99.90
5352;DHT22;2698;51.454;6.736;2022-12-15T09:12:05;-3.70;99.90
5352;DHT22;2698;51.454;6.736;2022-12-15T09:14:32;-3.60;99.90
5352;DHT22;2698;51.454;6.736;2022-12-15T09:16:59;-3.60;99.90
5352;DHT22;2698;51.454;6.736;2022-12-15T09:19:26;-3.50;99.90
5352;DHT22;2698;51.454;6.736;2022-12-15T09:21:52;-3.50;99.90
5352;DHT22;2698;51.454;6.736;2022-12-15T09:24:20;-3.50;99.90
5352;DHT22;2698;51.454;6.736;2022-12-15T09:26:48;-3.50;99.90
5352;DHT22;2698;51.454;6.736;2022-12-15T09:29:17;-3.50;99.90
5352;DHT22;2698;51.454;6.736;2022-12-15T09:31:44;-3.50;99.90
5352;DHT22;2698;51.454;6.736;2022-12-15T09:34:13;-3.80;99.90
5352;DHT22;2698;51.454;6.736;2022-12-15T09:36:40;-3.50;99.90
5352;DHT22;2698;51.454;6.736;2022-12-15T09:39:07;-3.40;99.90
5352;DHT22;2698;51.454;6.736;2022-12-15T09:41:38;-3.40;99.90
5352;DHT22;2698;51.454;6.736;2022-12-15T09:44:09;-3.30;99.90
5352;DHT22;2698;51.454;6.736;2022-12-15T09:46:51;-3.40;99.90
5352;DHT22;2698;51.454;6.736;2022-12-15T09:49:35;-3.30;99.90
5352;DHT22;2698;51.454;6.736;2022-12-15T09:52:05;-3.30;99.90
5352;DHT22;2698;51.454;6.736;2022-12-15T09:54:32;-3.30;99.90
5352;DHT22;2698;51.454;6.736;2022-12-15T09:57:03;-3.40;99.90
5352;DHT22;2698;51.454;6.736;2022-12-15T09:59:34;-3.30;99.90
5352;DHT22;2698;51.454;6.736;2022-12-15T10:02:25;-3.30;99.90
5352;DHT22;2698;51.454;6.736;2022-12-15T10:04:58;-3.30;99.90
5352;DHT22;2698;51.454;6.736;2022-12-15T10:07:32;-3.40;99.90
5352;DHT22;2698;51.454;6.736;2022-12-15T10:10:05;-3.30;99.90
5352;DHT22;2698;51.454;6.736;2022-12-15T10:12:35;-3.20;99.90
5352;DHT22;2698;51.454;6.736;2022-12-15T10:15:09;-3.10;99.90
5352;DHT22;2698;51.454;6.736;2022-12-15T10:17:45;-3.20;99.90
5352;DHT22;2698;51.454;6.736;2022-12-15T10:20:16;-3.20;99.90
5352;DHT22;2698;51.454;6.736;2022-12-15T10:22:44;-3.10;99.90
5352;DHT22;2698;51.454;6.736;2022-12-15T10:25:15;-3.10;99.90
5352;DHT22;2698;51.454;6.736;2022-12-15T10:28:05;-3.00;99.90
5352;DHT22;2698;51.454;6.736;2022-12-15T10:30:34;-3.00;99.90
5352;DHT22;2698;51.454;6.736;2022-12-15T10:33:13;-3.00;99.90
5352;DHT22;2698;51.454;6.736;2022-12-15T10:35:43;-2.90;99.90
5352;DHT22;2698;51.454;6.736;2022-12-15T10:38:20;-2.80;99.90
5352;DHT22;2698;51.454;6.736;2022-12-15T10:40:50;-2.90;99.90
5352;DHT22;2698;51.454;6.736;2022-12-15T10:43:28;-2.80;99.90
5352;DHT22;2698;51.454;6.736;2022-12-15T10:46:05;-2.70;99.90
5352;DHT22;2698;51.454;6.736;2022-12-15T10:48:37;-2.70;99.90
5352;DHT22;2698;51.454;6.736;2022-12-15T10:51:17;-2.70;99.90
5352;DHT22;2698;51.454;6.736;2022-12-15T10:53:46;-2.60;99.90
5352;DHT22;2698;51.454;6.736;2022-12-15T10:56:18;-2.60;99.90
5352;DHT22;2698;51.454;6.736;2022-12-15T10:58:47;-2.60;99.90
5352;DHT22;2698;51.454;6.736;2022-12-15T11:01:18;-2.70;99.90
5352;DHT22;2698;51.454;6.736;2022-12-15T11:03:47;-2.70;99.90
5352;DHT22;2698;51.454;6.736;2022-12-15T11:06:19;-2.70;99.90
5352;DHT22;2698;51.454;6.736;2022-12-15T11:08:48;-2.70;99.90
5352;DHT22;2698;51.454;6.736;2022-12-15T11:11:25;-2.60;99.90
5352;DHT22;2698;51.454;6.736;2022-12-15T11:14:12;-2.60;99.90
5352;DHT22;2698;51.454;6.736;2022-12-15T11:16:49;-2.50;99.90
5352;DHT22;2698;51.454;6.736;2022-12-15T11:19:26;-2.50;99.90
5352;DHT22;2698;51.454;6.736;2022-12-15T11:21:59;-2.50;99.90
5352;DHT22;2698;51.454;6.736;2022-12-15T11:24:34;-2.40;99.90
5352;DHT22;2698;51.454;6.736;2022-12-15T11:27:08;-2.50;99.90
5352;DHT22;2698;51.454;6.736;2022-12-15T11:29:47;-2.50;99.90
5352;DHT22;2698;51.454;6.736;2022-12-15T11:32:22;-2.50;99.90
5352;DHT22;2698;51.454;6.736;2022-12-15T11:34:51;-2.40;99.90
5352;DHT22;2698;51.454;6.736;2022-12-15T11:37:35;-2.30;99.90
5352;DHT22;2698;51.454;6.736;2022-12-15T11:40:22;-2.40;99.90
5352;DHT22;2698;51.454;6.736;2022-12-15T11:43:04;-2.40;99.90
5352;DHT22;2698;51.454;6.736;2022-12-15T11:45:40;-2.40;99.90
5352;DHT22;2698;51.454;6.736;2022-12-15T11:48:13;-2.30;99.90
5352;DHT22;2698;51.454;6.736;2022-12-15T11:50:49;-2.30;99.90
5352;DHT22;2698;51.454;6.736;2022-12-15T11:53:37;-2.30;99.90
5352;DHT22;2698;51.454;6.736;2022-12-15T11:56:16;-2.20;99.90
5352;DHT22;2698;51.454;6.736;2022-12-15T11:59:10;-2.10;99.90
5352;DHT22;2698;51.454;6.736;2022-12-15T12:01:59;-2.00;99.90
5352;DHT22;2698;51.454;6.736;2022-12-15T12:04:29;-2.00;99.90
5352;DHT22;2698;51.454;6.736;2022-12-15T12:07:07;-1.90;99.90
5352;DHT22;2698;51.454;6.736;2022-12-15T12:09:42;-1.90;99.90
5352;DHT22;2698;51.454;6.736;2022-12-15T12:12:19;-2.00;99.90
5352;DHT22;2698;51.454;6.736;2022-12-15T12:14:56;-2.00;99.90
5352;DHT22;2698;51.454;6.736;2022-12-15T12:17:37;-2.00;99.90
5352;DHT22;2698;51.454;6.736;2022-12-15T12:20:13;-2.00;99.90
5352;DHT22;2698;51.454;6.736;2022-12-15T12:22:49;-2.10;99.90
5352;DHT22;2698;51.454;6.736;2022-12-15T12:25:20;-2.00;99.90
5352;DHT22;2698;51.454;6.736;2022-12-15T12:27:53;-2.10;99.90
5352;DHT22;2698;51.454;6.736;2022-12-15T12:30:22;-2.00;99.90
5352;DHT22;2698;51.454;6.736;2022-12-15T12:32:55;-2.10;99.90
5352;DHT22;2698;51.454;6.736;2022-12-15T12:35:29;-2.00;99.90
5352;DHT22;2698;51.454;6.736;2022-12-15T12:38:00;-2.20;99.90
5352;DHT22;2698;51.454;6.736;2022-12-15T12:40:34;-2.20;99.90
5352;DHT22;2698;51.454;6.736;2022-12-15T12:43:06;-2.20;99.90
5352;DHT22;2698;51.454;6.736;2022-12-15T12:45:39;-2.20;99.90
5352;DHT22;2698;51.454;6.736;2022-12-15T12:48:11;-2.20;99.90
5352;DHT22;2698;51.454;6.736;2022-12-15T12:50:41;-2.30;99.90
5352;DHT22;2698;51.454;6.736;2022-12-15T12:53:24;-2.30;99.90
5352;DHT22;2698;51.454;6.736;2022-12-15T12:55:52;-2.20;99.90
5352;DHT22;2698;51.454;6.736;2022-12-15T12:58:31;-2.10;99.90
5352;DHT22;2698;51.454;6.736;2022-12-15T13:01:05;-2.00;99.90
5352;DHT22;2698;51.454;6.736;2022-12-15T13:03:41;-2.00;99.90
5352;DHT22;2698;51.454;6.736;2022-12-15T13:06:20;-2.10;99.90
5352;DHT22;2698;51.454;6.736;2022-12-15T13:08:50;-2.10;99.90
5352;DHT22;2698;51.454;6.736;2022-12-15T13:14:35;-2.20;99.90
5352;DHT22;2698;51.454;6.736;2022-12-15T13:17:13;-2.20;99.90
5352;DHT22;2698;51.454;6.736;2022-12-15T13:20:18;-2.20;99.90
5352;DHT22;2698;51.454;6.736;2022-12-15T13:22:47;-2.30;99.90
5352;DHT22;2698;51.454;6.736;2022-12-15T13:25:42;-2.30;99.90
5352;DHT22;2698;51.454;6.736;2022-12-15T13:28:36;-2.20;99.90
5352;DHT22;2698;51.454;6.736;2022-12-15T13:31:13;-2.10;99.90
5352;DHT22;2698;51.454;6.736;2022-12-15T13:33:53;-2.20;99.90
5352;DHT22;2698;51.454;6.736;2022-12-15T13:36:50;-2.20;99.90
5352;DHT22;2698;51.454;6.736;2022-12-15T13:42:33;-2.40;99.90
5352;DHT22;2698;51.454;6.736;2022-12-15T13:45:14;-2.40;99.90
5352;DHT22;2698;51.454;6.736;2022-12-15T13:47:50;-2.30;99.90
5352;DHT22;2698;51.454;6.736;2022-12-15T13:50:32;-2.30;99.90
5352;DHT22;2698;51.454;6.736;2022-12-15T13:53:02;-2.30;99.90
5352;DHT22;2698;51.454;6.736;2022-12-15T13:55:35;-2.30;99.90
5352;DHT22;2698;51.454;6.736;2022-12-15T13:58:09;-2.30;99.90
5352;DHT22;2698;51.454;6.736;2022-12-15T14:00:38;-2.30;99.90
5352;DHT22;2698;51.454;6.736;2022-12-15T14:03:13;-2.30;99.90
5352;DHT22;2698;51.454;6.736;2022-12-15T14:05:47;-2.30;99.90
5352;DHT22;2698;51.454;6.736;2022-12-15T14:08:15;-2.40;99.90
5352;DHT22;2698;51.454;6.736;2022-12-15T14:10:44;-2.30;99.90
5352;DHT22;2698;51.454;6.736;2022-12-15T14:13:18;-2.30;99.90
5352;DHT22;2698;51.454;6.736;2022-12-15T14:15:49;-2.30;99.90
5352;DHT22;2698;51.454;6.736;2022-12-15T14:18:26;-2.30;99.90
5352;DHT22;2698;51.454;6.736;2022-12-15T14:20:54;-2.30;99.90
5352;DHT22;2698;51.454;6.736;2022-12-15T14:23:22;-2.30;99.90
5352;DHT22;2698;51.454;6.736;2022-12-15T14:25:54;-2.30;99.90
5352;DHT22;2698;51.454;6.736;2022-12-15T14:28:28;-2.30;99.90
5352;DHT22;2698;51.454;6.736;2022-12-15T14:31:02;-2.30;99.90
5352;DHT22;2698;51.454;6.736;2022-12-15T14:33:32;-2.30;99.90
5352;DHT22;2698;51.454;6.736;2022-12-15T14:36:04;-2.40;99.90
5352;DHT22;2698;51.454;6.736;2022-12-15T14:38:45;-2.40;99.90
5352;DHT22;2698;51.454;6.736;2022-12-15T14:41:19;-2.40;99.90
5352;DHT22;2698;51.454;6.736;2022-12-15T14:43:48;-2.40;99.90
5352;DHT22;2698;51.454;6.736;2022-12-15T14:46:18;-2.40;99.90
5352;DHT22;2698;51.454;6.736;2022-12-15T14:48:50;-2.40;99.90
5352;DHT22;2698;51.454;6.736;2022-12-15T14:51:19;-2.40;99.90
5352;DHT22;2698;51.454;6.736;2022-12-15T14:53:48;-2.40;99.90
5352;DHT22;2698;51.454;6.736;2022-12-15T14:56:24;-2.50;99.90
5352;DHT22;2698;51.454;6.736;2022-12-15T14:58:57;-2.40;99.90
5352;DHT22;2698;51.454;6.736;2022-12-15T15:01:29;-2.40;99.90
5352;DHT22;2698;51.454;6.736;2022-12-15T15:04:00;-2.50;99.90
5352;DHT22;2698;51.454;6.736;2022-12-15T15:06:30;-2.50;99.90
5352;DHT22;2698;51.454;6.736;2022-12-15T15:09:13;-2.50;99.90
5352;DHT22;2698;51.454;6.736;2022-12-15T15:11:41;-2.50;99.90
5352;DHT22;2698;51.454;6.736;2022-12-15T15:14:12;-2.60;99.90
5352;DHT22;2698;51.454;6.736;2022-12-15T15:16:40;-2.60;99.90
5352;DHT22;2698;51.454;6.736;2022-12-15T15:19:15;-2.60;99.90
5352;DHT22;2698;51.454;6.736;2022-12-15T15:21:44;-2.60;99.90
5352;DHT22;2698;51.454;6.736;2022-12-15T15:24:22;-2.60;99.90
5352;DHT22;2698;51.454;6.736;2022-12-15T15:26:49;-2.60;99.90
5352;DHT22;2698;51.454;6.736;2022-12-15T15:29:37;-2.70;99.90
5352;DHT22;2698;51.454;6.736;2022-12-15T15:32:06;-2.70;99.90
5352;DHT22;2698;51.454;6.736;2022-12-15T15:34:33;-2.70;99.90
5352;DHT22;2698;51.454;6.736;2022-12-15T15:37:00;-2.70;99.90
5352;DHT22;2698;51.454;6.736;2022-12-15T15:39:31;-2.80;99.90
5352;DHT22;2698;51.454;6.736;2022-12-15T15:42:03;-2.80;99.90
5352;DHT22;2698;51.454;6.736;2022-12-15T15:44:30;-2.80;99.90
5352;DHT22;2698;51.454;6.736;2022-12-15T15:46:59;-2.80;99.90
5352;DHT22;2698;51.454;6.736;2022-12-15T15:49:26;-2.80;99.90
5352;DHT22;2698;51.454;6.736;2022-12-15T15:51:54;-2.80;99.90
5352;DHT22;2698;51.454;6.736;2022-12-15T15:54:22;-2.80;99.90
5352;DHT22;2698;51.454;6.736;2022-12-15T15:56:50;-2.80;99.90
5352;DHT22;2698;51.454;6.736;2022-12-15T15:59:18;-2.90;99.90
5352;DHT22;2698;51.454;6.736;2022-12-15T16:01:50;-2.90;99.90
5352;DHT22;2698;51.454;6.736;2022-12-15T16:04:19;-2.90;99.90
5352;DHT22;2698;51.454;6.736;2022-12-15T16:06:46;-2.80;99.90
5352;DHT22;2698;51.454;6.736;2022-12-15T16:09:13;-2.80;99.90
5352;DHT22;2698;51.454;6.736;2022-12-15T16:11:41;-2.90;99.90
5352;DHT22;2698;51.454;6.736;2022-12-15T16:14:11;-2.90;99.90
5352;DHT22;2698;51.454;6.736;2022-12-15T16:16:38;-2.80;99.90
5352;DHT22;2698;51.454;6.736;2022-12-15T16:19:04;-2.90;99.90
5352;DHT22;2698;51.454;6.736;2022-12-15T16:21:33;-2.90;99.90
5352;DHT22;2698;51.454;6.736;2022-12-15T16:24:06;-2.90;99.90
5352;DHT22;2698;51.454;6.736;2022-12-15T16:26:34;-2.90;99.90
5352;DHT22;2698;51.454;6.736;2022-12-15T16:29:01;-2.90;99.90
5352;DHT22;2698;51.454;6.736;2022-12-15T16:31:31;-2.90;99.90
5352;DHT22;2698;51.454;6.736;2022-12-15T16:33:59;-2.90;99.90
5352;DHT22;2698;51.454;6.736;2022-12-15T16:36:25;-3.00;99.90
5352;DHT22;2698;51.454;6.736;2022-12-15T16:38:53;-3.00;99.90
5352;DHT22;2698;51.454;6.736;2022-12-15T16:41:20;-3.00;99.90
5352;DHT22;2698;51.454;6.736;2022-12-15T16:43:48;-3.00;99.90
5352;DHT22;2698;51.454;6.736;2022-12-15T16:46:15;-3.00;99.90
5352;DHT22;2698;51.454;6.736;2022-12-15T16:48:42;-3.00;99.90